Time;durP1;ratioP1;P1;durP2;ratioP2;P2;SDS_P1;SDS_P2;PMS_P1;PMS_P2;Temp;Humidity;BMP_temperature;BMP_pressure;BME280_temperature;BME280_humidity;BME280_pressure;Samples;Min_cycle;Max_cycle;Signal;HPM_P1;HPM_P2
2021/03/28 00:01:07;;;;;;;3.22;1.10;;;20.00;44.60;;;;;;5155141;28;20028;-78
2021/03/28 00:03:42;;;;;;;3.80;1.08;;;20.00;44.50;;;;;;5154201;28;20052;-79
2021/03/28 00:06:34;;;;;;;3.33;1.08;;;19.90;44.70;;;;;;5140440;28;20031;-79
2021/03/28 00:09:14;;;;;;;3.33;1.02;;;19.90;44.50;;;;;;5137044;28;20034;-79
2021/03/28 00:11:57;;;;;;;4.07;1.10;;;19.90;45.00;;;;;;5156961;28;20052;-79
2021/03/28 00:14:46;;;;;;;4.63;1.33;;;19.80;45.00;;;;;;5156702;28;20030;-79
2021/03/28 00:17:19;;;;;;;5.72;1.20;;;19.90;45.10;;;;;;5139012;28;20034;-79
2021/03/28 00:20:14;;;;;;;3.35;1.00;;;19.80;45.10;;;;;;5174082;28;20035;-80
2021/03/28 00:22:46;;;;;;;3.75;1.45;;;19.80;45.00;;;;;;5174669;28;20447;-79
2021/03/28 00:25:21;;;;;;;4.15;1.17;;;19.80;45.20;;;;;;5157181;28;20085;-78
2021/03/28 00:27:53;;;;;;;4.32;1.48;;;19.80;45.20;;;;;;5156358;28;20035;-79
2021/03/28 00:30:32;;;;;;;5.50;1.35;;;19.70;45.30;;;;;;5155914;28;20034;-79
2021/03/28 00:33:09;;;;;;;3.67;1.15;;;19.80;45.30;;;;;;5157211;28;20077;-80
2021/03/28 00:35:59;;;;;;;3.63;1.25;;;19.70;45.20;;;;;;5173275;28;20100;-79
2021/03/28 00:38:43;;;;;;;3.75;1.25;;;19.70;45.00;;;;;;5157696;28;20381;-80
2021/03/28 00:41:41;;;;;;;3.38;1.40;;;19.70;45.20;;;;;;5151079;28;20027;-79
2021/03/28 00:44:18;;;;;;;3.35;1.08;;;19.70;45.20;;;;;;5146505;28;20093;-80
2021/03/28 00:46:51;;;;;;;3.70;1.00;;;19.70;44.80;;;;;;5146936;28;20041;-79
2021/03/28 00:49:29;;;;;;;3.15;1.30;;;19.70;44.90;;;;;;5167166;28;20029;-79
2021/03/28 00:52:20;;;;;;;3.30;1.10;;;19.70;46.00;;;;;;5167402;28;20026;-79
2021/03/28 00:54:52;;;;;;;4.30;1.17;;;19.70;45.40;;;;;;5168595;28;20197;-79
2021/03/28 00:57:34;;;;;;;2.40;0.90;;;19.70;45.40;;;;;;5135792;28;20090;-79
2021/03/28 01:00:29;;;;;;;3.15;1.27;;;19.60;45.30;;;;;;5135457;28;20025;-78
2021/03/28 01:03:03;;;;;;;3.20;1.20;;;19.60;45.30;;;;;;5168312;28;20026;-79
2021/03/28 01:05:43;;;;;;;3.97;1.30;;;19.70;45.40;;;;;;5148214;28;20069;-81
2021/03/28 01:08:47;;;;;;;4.20;1.33;;;19.70;45.40;;;;;;5166942;28;20033;-79
2021/03/28 01:11:36;;;;;;;3.30;1.23;;;19.70;45.40;;;;;;5169279;28;20031;-78
2021/03/28 01:14:41;;;;;;;5.05;1.40;;;19.60;45.30;;;;;;5153932;28;20039;-79
2021/03/28 01:17:44;;;;;;;4.70;1.40;;;19.70;45.40;;;;;;5171269;28;20072;-79
2021/03/28 01:20:41;;;;;;;4.97;1.55;;;19.60;45.30;;;;;;5152317;28;20134;-79
2021/03/28 01:23:22;;;;;;;3.38;1.20;;;19.70;45.40;;;;;;5161559;28;20039;-81
2021/03/28 01:26:06;;;;;;;4.45;1.30;;;19.70;45.40;;;;;;5154498;28;20022;-79
2021/03/28 01:29:28;;;;;;;4.43;1.20;;;19.60;45.10;;;;;;5165166;28;20026;-79
2021/03/28 01:32:16;;;;;;;4.05;1.15;;;19.60;45.00;;;;;;5134603;28;20050;-80
2021/03/28 01:35:12;;;;;;;3.45;1.30;;;19.70;45.50;;;;;;5165863;28;20045;-80
2021/03/28 01:38:04;;;;;;;2.65;1.15;;;19.70;45.40;;;;;;5154816;28;20046;-80
2021/03/28 01:40:44;;;;;;;3.90;1.30;;;19.60;45.60;;;;;;5170278;28;20413;-80
2021/03/28 01:43:35;;;;;;;6.90;1.88;;;19.60;45.50;;;;;;5150599;28;20027;-79
2021/03/28 01:46:35;;;;;;;3.50;1.15;;;19.60;45.60;;;;;;5149272;28;20161;-78
2021/03/28 01:49:23;;;;;;;4.05;1.45;;;19.60;45.50;;;;;;5169382;28;20409;-79
2021/03/28 01:52:10;;;;;;;4.93;1.50;;;19.60;45.50;;;;;;5137103;28;20041;-79
2021/03/28 01:54:59;;;;;;;6.63;1.50;;;19.60;45.60;;;;;;5154858;28;20029;-79
2021/03/28 01:57:50;;;;;;;3.65;1.27;;;19.60;45.10;;;;;;5162600;28;20031;-79
2021/03/28 02:01:01;;;;;;;3.45;1.25;;;19.60;45.60;;;;;;5159752;28;20531;-80
2021/03/28 02:03:54;;;;;;;6.07;1.50;;;19.60;45.60;;;;;;5171790;28;20385;-79
2021/03/28 02:06:41;;;;;;;5.03;1.50;;;19.60;45.60;;;;;;5156343;28;20038;-80
2021/03/28 02:09:41;;;;;;;3.30;1.10;;;19.60;45.50;;;;;;5169930;28;20030;-80
2021/03/28 02:12:19;;;;;;;4.07;1.23;;;19.60;45.40;;;;;;5134784;28;20035;-79
2021/03/28 02:15:21;;;;;;;4.32;1.10;;;19.60;45.60;;;;;;5154031;28;20088;-79
2021/03/28 02:18:06;;;;;;;5.40;1.45;;;19.60;45.40;;;;;;5170976;28;20050;-79
2021/03/28 02:21:06;;;;;;;5.45;1.40;;;19.60;45.50;;;;;;5169821;28;20037;-79
2021/03/28 02:23:46;;;;;;;4.32;1.30;;;19.50;45.50;;;;;;5151746;28;20027;-79
2021/03/28 02:26:48;;;;;;;3.13;1.25;;;19.50;45.40;;;;;;5150524;28;20031;-78
2021/03/28 02:29:25;;;;;;;3.40;1.17;;;19.60;45.50;;;;;;5190964;23;20088;-78
2021/03/28 02:32:19;;;;;;;3.72;1.35;;;19.60;45.40;;;;;;5143081;28;20034;-78
2021/03/28 02:35:02;;;;;;;2.58;1.30;;;19.60;45.50;;;;;;5169896;28;20014;-78
2021/03/28 02:37:39;;;;;;;4.30;1.27;;;19.60;45.40;;;;;;5146596;28;20092;-78
2021/03/28 02:40:22;;;;;;;4.22;1.45;;;19.60;45.50;;;;;;5146273;28;20076;-78
2021/03/28 02:42:59;;;;;;;3.95;1.58;;;19.60;45.30;;;;;;5147588;28;20077;-78
2021/03/28 02:45:30;;;;;;;4.25;1.48;;;19.60;45.50;;;;;;5146611;28;20034;-79
2021/03/28 02:48:17;;;;;;;2.92;1.50;;;19.60;45.60;;;;;;5130722;28;20117;-78
2021/03/28 02:50:54;;;;;;;4.22;1.25;;;19.60;45.30;;;;;;5163490;28;20050;-78
2021/03/28 02:53:37;;;;;;;4.20;1.23;;;19.60;45.50;;;;;;5146574;28;20128;-78
2021/03/28 02:56:20;;;;;;;5.93;1.60;;;19.60;45.50;;;;;;5179458;28;20030;-78
2021/03/28 02:59:16;;;;;;;3.33;1.33;;;19.50;45.00;;;;;;5162697;28;20501;-78
2021/03/28 03:02:02;;;;;;;3.42;1.10;;;19.60;45.60;;;;;;5163204;28;20370;-79
2021/03/28 03:04:42;;;;;;;5.28;1.73;;;19.50;45.30;;;;;;5147456;28;20022;-78
2021/03/28 03:07:46;;;;;;;4.18;1.30;;;19.50;45.50;;;;;;5162784;28;20030;-78
2021/03/28 03:10:38;;;;;;;4.10;1.50;;;19.50;45.50;;;;;;5164143;28;20061;-78
2021/03/28 03:13:14;;;;;;;4.10;1.40;;;19.50;45.40;;;;;;5162636;28;20397;-78
2021/03/28 03:16:04;;;;;;;4.07;1.40;;;19.50;45.50;;;;;;5142049;28;20035;-78
2021/03/28 03:18:54;;;;;;;5.15;1.58;;;19.60;45.30;;;;;;5137992;28;20034;-78
2021/03/28 03:21:30;;;;;;;4.65;1.60;;;19.50;45.30;;;;;;5163292;28;20117;-78
2021/03/28 03:24:19;;;;;;;3.33;1.33;;;19.50;45.20;;;;;;5143285;28;20022;-78
2021/03/28 03:27:18;;;;;;;3.60;1.30;;;19.50;45.40;;;;;;5163869;28;20022;-78
2021/03/28 03:30:04;;;;;;;3.92;1.52;;;19.50;45.30;;;;;;5148184;28;20030;-78
2021/03/28 03:32:53;;;;;;;6.43;1.60;;;19.50;45.30;;;;;;5148931;28;20050;-78
2021/03/28 03:35:44;;;;;;;6.80;1.50;;;19.50;45.40;;;;;;5147591;28;20086;-79
2021/03/28 03:38:33;;;;;;;4.25;1.40;;;19.50;45.20;;;;;;5166108;28;20385;-79
2021/03/28 03:41:33;;;;;;;6.45;1.48;;;19.50;45.30;;;;;;5168041;28;20440;-80
2021/03/28 03:44:12;;;;;;;8.05;1.60;;;19.50;45.40;;;;;;5162128;28;20070;-79
2021/03/28 03:46:49;;;;;;;2.97;1.58;;;19.50;45.30;;;;;;5184290;28;20489;-79
2021/03/28 03:50:04;;;;;;;4.35;1.20;;;19.50;45.20;;;;;;5156122;28;20477;-78
2021/03/28 03:53:03;;;;;;;3.90;1.20;;;19.50;45.20;;;;;;5164406;28;20151;-79
2021/03/28 03:55:50;;;;;;;3.63;1.10;;;19.50;45.20;;;;;;5142047;28;20126;-78
2021/03/28 03:58:36;;;;;;;4.90;1.50;;;19.50;44.70;;;;;;5152833;28;20408;-78
2021/03/28 04:01:27;;;;;;;4.20;1.40;;;19.50;45.30;;;;;;5169112;28;20045;-79
2021/03/28 04:04:07;;;;;;;4.07;1.08;;;19.50;45.20;;;;;;5155458;28;20035;-78
2021/03/28 04:06:46;;;;;;;3.88;1.33;;;19.40;44.60;;;;;;5171369;28;20574;-78
2021/03/28 04:09:44;;;;;;;4.22;1.27;;;19.50;45.00;;;;;;5169520;28;20045;-78
2021/03/28 04:13:03;;;;;;;5.45;1.40;;;19.50;45.20;;;;;;5155949;28;20495;-78
2021/03/28 04:15:50;;;;;;;4.47;1.25;;;19.40;45.10;;;;;;5166947;28;20049;-77
2021/03/28 04:18:42;;;;;;;4.88;1.40;;;19.50;45.30;;;;;;5170797;28;20026;-79
2021/03/28 04:21:31;;;;;;;4.78;1.40;;;19.40;44.90;;;;;;5138078;28;20494;-78
2021/03/28 04:24:10;;;;;;;3.90;1.40;;;19.50;45.10;;;;;;5169007;28;20109;-79
2021/03/28 04:26:59;;;;;;;2.95;1.05;;;19.50;45.00;;;;;;5170336;28;20027;-78
2021/03/28 04:29:30;;;;;;;4.00;1.20;;;19.50;45.30;;;;;;5150176;28;20037;-79
2021/03/28 04:32:10;;;;;;;5.55;1.30;;;19.50;45.10;;;;;;5136161;28;20030;-79
2021/03/28 04:35:11;;;;;;;2.50;1.25;;;19.60;45.00;;;;;;5153263;28;20026;-79
2021/03/28 04:38:04;;;;;;;5.15;1.42;;;19.80;44.60;;;;;;5171141;28;20596;-79
2021/03/28 04:40:50;;;;;;;3.25;1.10;;;19.80;44.50;;;;;;5168398;28;20073;-78
2021/03/28 04:43:39;;;;;;;3.97;0.88;;;19.90;44.40;;;;;;5169077;28;20038;-78
2021/03/28 04:46:47;;;;;;;4.78;1.30;;;19.90;44.30;;;;;;5168244;28;20054;-79
2021/03/28 04:49:50;;;;;;;3.17;1.02;;;20.00;44.50;;;;;;5167536;28;20041;-79
2021/03/28 04:52:35;;;;;;;2.78;1.00;;;20.00;44.60;;;;;;5133845;28;20518;-79
2021/03/28 04:55:16;;;;;;;2.87;0.93;;;20.00;44.70;;;;;;5162544;28;20022;-79
2021/03/28 04:58:17;;;;;;;3.55;1.00;;;20.00;44.70;;;;;;5149453;28;20030;-78
2021/03/28 05:01:25;;;;;;;4.22;1.02;;;20.00;44.70;;;;;;5166579;28;20551;-79
2021/03/28 05:04:28;;;;;;;3.08;0.75;;;20.00;44.60;;;;;;5165903;28;20034;-79
2021/03/28 05:07:04;;;;;;;3.38;1.10;;;20.10;44.70;;;;;;5149876;28;20038;-78
2021/03/28 05:09:55;;;;;;;3.38;1.20;;;20.00;44.70;;;;;;5166856;28;20067;-79
2021/03/28 05:12:45;;;;;;;2.85;1.00;;;20.10;44.80;;;;;;5150939;28;20030;-79
2021/03/28 05:15:43;;;;;;;3.50;0.90;;;20.10;44.60;;;;;;5165065;28;20030;-78
2021/03/28 05:18:57;;;;;;;2.90;0.98;;;20.10;44.60;;;;;;5166788;28;20112;-78
2021/03/28 05:21:52;;;;;;;1.85;0.90;;;20.10;44.90;;;;;;5165299;28;20030;-79
2021/03/28 05:24:37;;;;;;;4.73;1.10;;;20.10;44.80;;;;;;5165968;28;20485;-79
2021/03/28 05:27:16;;;;;;;3.03;1.25;;;20.10;44.90;;;;;;5165638;28;20029;-79
2021/03/28 05:30:24;;;;;;;4.70;0.80;;;20.10;45.00;;;;;;5166357;28;20038;-80
2021/03/28 05:33:00;;;;;;;6.00;1.00;;;20.10;46.20;;;;;;5145357;28;20035;-79
2021/03/28 05:35:58;;;;;;;7.53;1.10;;;20.10;46.70;;;;;;5146987;28;20022;-79
2021/03/28 05:38:41;;;;;;;16.50;1.42;;;20.20;47.10;;;;;;5148176;28;20033;-79
2021/03/28 05:41:20;;;;;;;6.50;1.10;;;20.20;46.60;;;;;;5170302;28;20026;-79
2021/03/28 05:44:06;;;;;;;4.32;1.20;;;20.20;46.20;;;;;;5165640;28;20029;-79
2021/03/28 05:47:05;;;;;;;3.42;1.23;;;20.20;46.00;;;;;;5149093;28;20037;-79
2021/03/28 05:50:02;;;;;;;4.75;1.00;;;20.20;45.80;;;;;;5145483;28;20065;-79
2021/03/28 05:52:44;;;;;;;4.15;0.98;;;20.20;45.80;;;;;;5146126;28;20023;-80
2021/03/28 05:55:29;;;;;;;3.95;0.82;;;20.20;45.90;;;;;;5130051;28;20034;-79
2021/03/28 05:58:37;;;;;;;3.58;1.05;;;20.20;46.00;;;;;;5145741;28;20027;-79
2021/03/28 06:01:16;;;;;;;3.10;0.90;;;20.20;46.10;;;;;;5162049;28;20040;-78
2021/03/28 06:04:08;;;;;;;3.67;0.77;;;20.10;46.30;;;;;;5165756;28;20022;-78
2021/03/28 06:06:52;;;;;;;3.22;0.80;;;20.20;46.40;;;;;;5166751;28;20027;-79
2021/03/28 06:09:39;;;;;;;3.45;1.02;;;20.20;46.90;;;;;;5164402;28;20030;-80
2021/03/28 06:12:30;;;;;;;2.28;0.70;;;20.20;46.30;;;;;;5164735;28;20399;-79
2021/03/28 06:15:38;;;;;;;2.45;0.80;;;20.20;46.40;;;;;;5164438;28;20094;-78
2021/03/28 06:18:41;;;;;;;1.60;0.70;;;20.20;46.60;;;;;;5165404;28;20085;-79
2021/03/28 06:21:26;;;;;;;1.55;0.60;;;20.10;46.50;;;;;;5161422;28;20030;-79
2021/03/28 06:24:21;;;;;;;3.10;0.90;;;20.10;46.80;;;;;;5178530;28;20030;-78
2021/03/28 06:27:04;;;;;;;1.90;0.70;;;20.10;46.50;;;;;;5144770;28;20411;-79
2021/03/28 06:30:12;;;;;;;2.83;0.73;;;20.10;46.50;;;;;;5163141;28;20042;-79
2021/03/28 06:33:16;;;;;;;14.27;0.75;;;20.20;47.20;;;;;;5165214;28;20104;-80
2021/03/28 06:36:22;;;;;;;1.50;0.57;;;20.30;47.20;;;;;;5165152;28;20105;-79
2021/03/28 06:39:24;;;;;;;3.05;0.68;;;20.30;46.90;;;;;;5130841;28;20056;-79
2021/03/28 06:42:10;;;;;;;4.03;0.73;;;20.20;47.00;;;;;;5162918;28;20110;-79
2021/03/28 06:45:14;;;;;;;2.63;0.47;;;20.20;46.90;;;;;;5165314;28;20102;-79
2021/03/28 06:47:45;;;;;;;2.85;0.80;;;20.20;47.00;;;;;;5164672;28;20500;-79
2021/03/28 06:50:34;;;;;;;3.33;0.77;;;20.20;47.30;;;;;;5166192;28;20027;-79
2021/03/28 06:53:23;;;;;;;4.25;0.80;;;20.20;47.20;;;;;;5164910;28;20027;-80
2021/03/28 06:56:17;;;;;;;1.35;0.40;;;20.20;47.10;;;;;;5151654;28;20456;-79
2021/03/28 06:59:05;;;;;;;1.80;0.52;;;20.20;47.10;;;;;;5148386;28;20030;-78
2021/03/28 07:02:09;;;;;;;2.85;0.57;;;20.20;47.10;;;;;;5159909;28;20038;-78
2021/03/28 07:05:01;;;;;;;1.48;0.60;;;20.20;47.30;;;;;;5164117;28;20100;-79
2021/03/28 07:08:03;;;;;;;2.35;0.50;;;20.20;47.30;;;;;;5184753;28;20577;-78
2021/03/28 07:10:53;;;;;;;2.00;0.70;;;20.20;47.40;;;;;;5161417;28;20029;-79
2021/03/28 07:13:30;;;;;;;0.90;0.60;;;20.20;47.40;;;;;;5143624;28;20196;-79
2021/03/28 07:16:33;;;;;;;2.13;0.50;;;20.20;47.70;;;;;;5157554;28;20380;-78
2021/03/28 07:19:25;;;;;;;3.22;0.77;;;20.20;47.90;;;;;;5142637;28;20069;-79
2021/03/28 07:22:29;;;;;;;2.05;0.60;;;20.20;48.40;;;;;;5161657;28;20029;-79
2021/03/28 07:25:27;;;;;;;4.03;0.70;;;20.20;48.70;;;;;;5145863;28;20026;-78
2021/03/28 07:28:26;;;;;;;2.40;0.50;;;20.20;48.60;;;;;;5163267;28;20034;-79
2021/03/28 07:31:02;;;;;;;1.27;0.60;;;20.10;48.10;;;;;;5161477;28;20084;-78
2021/03/28 07:34:10;;;;;;;2.35;0.70;;;20.10;48.10;;;;;;5163097;28;20053;-79
2021/03/28 07:37:09;;;;;;;2.50;0.80;;;20.00;48.10;;;;;;5161469;28;20493;-78
2021/03/28 07:40:06;;;;;;;3.13;0.80;;;19.80;47.80;;;;;;5156423;28;20019;-78
2021/03/28 07:43:01;;;;;;;2.92;0.80;;;19.90;47.80;;;;;;5145615;28;20026;-78
2021/03/28 07:45:36;;;;;;;1.58;0.63;;;19.80;47.70;;;;;;5163660;28;20054;-79
2021/03/28 07:48:28;;;;;;;1.90;0.70;;;19.80;47.40;;;;;;5161205;28;20033;-78
2021/03/28 07:51:15;;;;;;;1.17;0.60;;;19.80;47.30;;;;;;5158618;28;20568;-78
2021/03/28 07:54:04;;;;;;;1.77;0.75;;;19.90;47.10;;;;;;5160889;28;20419;-78
2021/03/28 07:56:37;;;;;;;1.95;0.80;;;19.80;47.20;;;;;;5161556;28;20435;-79
2021/03/28 07:59:27;;;;;;;1.25;0.60;;;19.80;47.00;;;;;;5174054;28;20029;-78
2021/03/28 08:02:20;;;;;;;2.22;0.60;;;19.80;47.00;;;;;;5144457;28;20057;-79
2021/03/28 08:05:25;;;;;;;1.00;0.50;;;19.80;46.90;;;;;;5147364;28;20149;-78
2021/03/28 08:08:00;;;;;;;1.38;0.70;;;19.80;46.80;;;;;;5139430;28;20031;-78
2021/03/28 08:10:50;;;;;;;1.27;0.55;;;19.80;46.70;;;;;;5145407;28;20563;-78
2021/03/28 08:13:47;;;;;;;3.50;0.55;;;19.90;46.50;;;;;;5162017;28;20518;-78
2021/03/28 08:16:56;;;;;;;1.65;0.63;;;19.80;46.70;;;;;;5159545;28;20035;-77
2021/03/28 08:19:48;;;;;;;1.88;0.75;;;19.70;46.80;;;;;;5147371;28;20132;-77
2021/03/28 08:22:43;;;;;;;1.35;0.60;;;19.80;46.60;;;;;;5145031;28;20049;-77
2021/03/28 08:25:51;;;;;;;3.03;0.70;;;19.80;46.40;;;;;;5163432;28;20023;-78
2021/03/28 08:28:34;;;;;;;1.75;0.60;;;19.80;46.50;;;;;;5180304;23;20054;-81
2021/03/28 08:31:43;;;;;;;1.10;0.52;;;19.70;46.60;;;;;;5152802;28;20026;-79
2021/03/28 08:34:41;;;;;;;1.20;0.63;;;19.70;46.80;;;;;;5171631;28;20030;-78
2021/03/28 08:37:31;;;;;;;6.80;1.20;;;19.80;47.30;;;;;;5169872;28;20050;-78
2021/03/28 08:40:18;;;;;;;5.63;1.00;;;19.90;47.90;;;;;;5148500;28;20507;-78
2021/03/28 08:43:33;;;;;;;6.25;0.75;;;20.00;47.90;;;;;;5150272;28;20034;-79
2021/03/28 08:46:10;;;;;;;4.05;0.95;;;20.10;48.30;;;;;;5149755;28;20049;-78
2021/03/28 08:49:02;;;;;;;11.57;1.17;;;20.10;47.80;;;;;;5141862;28;20090;-79
2021/03/28 08:51:38;;;;;;;9.25;1.17;;;20.10;47.70;;;;;;5141460;28;20023;-79
2021/03/28 08:54:13;;;;;;;4.97;0.82;;;20.10;47.90;;;;;;5135395;28;20400;-80
2021/03/28 08:57:05;;;;;;;11.30;0.90;;;20.10;47.50;;;;;;5136188;28;20081;-80
2021/03/28 09:00:16;;;;;;;6.63;1.02;;;20.10;47.30;;;;;;5136526;28;20030;-79
2021/03/28 09:02:59;;;;;;;9.10;1.30;;;20.10;47.40;;;;;;5101963;29;20474;-80
2021/03/28 09:05:34;;;;;;;5.88;1.45;;;20.00;47.30;;;;;;5120528;28;20031;-80
2021/03/28 09:08:23;;;;;;;7.97;1.27;;;20.10;47.20;;;;;;5118234;28;20393;-79
2021/03/28 09:11:20;;;;;;;8.23;1.40;;;20.10;47.20;;;;;;5146104;28;20015;-80
2021/03/28 09:14:19;;;;;;;6.60;1.20;;;20.10;47.30;;;;;;5141483;28;20023;-79
2021/03/28 09:16:56;;;;;;;9.60;1.10;;;20.10;47.20;;;;;;5129628;28;20051;-79
2021/03/28 09:19:45;;;;;;;8.75;1.67;;;20.10;47.20;;;;;;5147309;28;20030;-80
2021/03/28 09:22:41;;;;;;;7.95;1.20;;;20.10;47.10;;;;;;5149144;28;20494;-78
2021/03/28 09:25:14;;;;;;;5.60;1.33;;;20.10;47.10;;;;;;5132046;28;20034;-79
2021/03/28 09:28:16;;;;;;;5.65;1.50;;;20.10;47.10;;;;;;5151990;28;20029;-80
2021/03/28 09:30:55;;;;;;;7.05;1.60;;;20.10;47.10;;;;;;5139654;28;20090;-79
2021/03/28 09:33:29;;;;;;;7.18;1.58;;;20.10;47.10;;;;;;5127248;28;20119;-81
2021/03/28 09:36:26;;;;;;;7.32;1.55;;;20.10;47.30;;;;;;5126170;28;20074;-79
2021/03/28 09:39:15;;;;;;;9.48;1.60;;;20.10;47.00;;;;;;5136833;28;20042;-79
2021/03/28 09:42:18;;;;;;;8.02;1.75;;;20.10;47.10;;;;;;5160960;28;20118;-80
2021/03/28 09:45:30;;;;;;;11.43;2.05;;;20.10;47.10;;;;;;5165417;28;20029;-80
2021/03/28 09:48:29;;;;;;;12.50;2.33;;;20.10;47.30;;;;;;5114496;28;20027;-79
2021/03/28 09:51:20;;;;;;;5.13;2.05;;;20.10;47.40;;;;;;5141297;28;20027;-78
2021/03/28 09:54:14;;;;;;;8.65;1.33;;;20.10;47.40;;;;;;5148616;28;20485;-80
2021/03/28 09:57:14;;;;;;;15.25;2.10;;;20.10;47.40;;;;;;5144994;28;20493;-80
2021/03/28 10:00:18;;;;;;;14.55;2.15;;;20.10;47.30;;;;;;5128640;28;20544;-79
2021/03/28 10:02:51;;;;;;;13.30;1.90;;;20.10;47.80;;;;;;5131676;28;20049;-81
2021/03/28 10:05:26;;;;;;;15.93;2.10;;;20.10;47.90;;;;;;5157012;28;20031;-81
2021/03/28 10:08:05;;;;;;;;;;;20.10;48.10;;;;;;5131697;28;20114;-79
2021/03/28 10:10:48;;;;;;;12.10;1.88;;;20.00;48.60;;;;;;5146338;28;20009;-81
2021/03/28 10:13:56;;;;;;;9.63;1.70;;;20.00;48.70;;;;;;5146609;28;20401;-79
2021/03/28 10:16:36;;;;;;;8.20;1.73;;;20.10;48.80;;;;;;5145364;28;20049;-79
2021/03/28 10:19:14;;;;;;;6.55;1.65;;;20.10;49.00;;;;;;5146080;28;20158;-80
2021/03/28 10:22:06;;;;;;;10.85;2.20;;;20.00;49.30;;;;;;5146076;28;20114;-79
2021/03/28 10:24:53;;;;;;;5.50;1.50;;;20.00;49.20;;;;;;5146002;28;20158;-80
2021/03/28 10:27:57;;;;;;;6.82;1.42;;;20.00;49.30;;;;;;5123718;28;20507;-78
2021/03/28 10:30:42;;;;;;;8.93;1.50;;;20.10;49.30;;;;;;5129540;28;20047;-79
2021/03/28 10:33:31;;;;;;;8.23;1.70;;;20.10;49.30;;;;;;5147396;28;20023;-81
2021/03/28 10:36:31;;;;;;;7.93;1.45;;;20.10;49.70;;;;;;5143964;28;20045;-79
2021/03/28 10:39:22;;;;;;;11.35;1.42;;;20.10;49.90;;;;;;5142196;28;20478;-80
2021/03/28 10:41:58;;;;;;;13.20;1.60;;;20.10;49.80;;;;;;5141565;28;20386;-79
2021/03/28 10:44:58;;;;;;;6.25;1.08;;;20.00;50.00;;;;;;5147136;28;20138;-77
2021/03/28 10:48:02;;;;;;;11.20;1.20;;;20.00;50.50;;;;;;5139133;28;20043;-79
2021/03/28 10:50:50;;;;;;;5.60;1.40;;;20.00;50.00;;;;;;5137980;28;20026;-78
2021/03/28 10:53:38;;;;;;;6.75;0.95;;;20.00;50.20;;;;;;5146486;28;20038;-81
2021/03/28 10:56:27;;;;;;;4.65;1.10;;;19.90;50.30;;;;;;5148010;28;20194;-79
2021/03/28 10:59:15;;;;;;;5.65;1.30;;;19.90;50.40;;;;;;5147108;28;20046;-80
2021/03/28 11:02:11;;;;;;;5.00;1.20;;;20.00;50.40;;;;;;5144336;28;20046;-79
2021/03/28 11:05:19;;;;;;;8.93;1.10;;;20.00;50.30;;;;;;5121914;28;20019;-79
2021/03/28 11:07:59;;;;;;;6.55;1.13;;;20.00;50.40;;;;;;5148927;28;20505;-79
2021/03/28 11:10:58;;;;;;;6.78;1.00;;;20.00;50.40;;;;;;5142288;28;20057;-79
2021/03/28 11:13:50;;;;;;;4.07;0.90;;;20.00;50.50;;;;;;5161989;28;20345;-79
2021/03/28 11:16:51;;;;;;;3.83;0.90;;;20.00;50.40;;;;;;5143310;28;20066;-79
2021/03/28 11:19:39;;;;;;;5.25;1.00;;;20.00;50.50;;;;;;5128144;28;20022;-78
2021/03/28 11:22:24;;;;;;;3.78;0.80;;;19.90;50.70;;;;;;5138690;28;20026;-79
2021/03/28 11:25:16;;;;;;;2.60;0.82;;;19.90;50.70;;;;;;5125531;28;20485;-77
2021/03/28 11:28:25;;;;;;;2.83;1.05;;;20.00;50.80;;;;;;5126684;28;20038;-78
2021/03/28 11:31:26;;;;;;;3.45;0.90;;;19.90;50.80;;;;;;5139030;28;20063;-79
2021/03/28 11:34:01;;;;;;;3.45;0.98;;;19.90;50.90;;;;;;5109895;29;20028;-79
2021/03/28 11:36:34;;;;;;;3.70;1.33;;;19.90;51.20;;;;;;5134967;28;20089;-79
2021/03/28 11:39:20;;;;;;;3.10;1.02;;;20.00;51.00;;;;;;5125062;28;20557;-79
2021/03/28 11:42:08;;;;;;;3.35;0.80;;;19.90;51.20;;;;;;5141945;28;20038;-76
2021/03/28 11:45:04;;;;;;;2.92;0.90;;;20.00;51.60;;;;;;5140454;28;20058;-78
2021/03/28 11:47:51;;;;;;;3.28;0.77;;;20.10;52.10;;;;;;5112227;28;20042;-77
2021/03/28 11:50:45;;;;;;;2.88;1.05;;;20.10;51.70;;;;;;5123194;28;20456;-79
2021/03/28 11:53:25;;;;;;;2.80;1.15;;;20.10;51.60;;;;;;5128143;28;20030;-80
2021/03/28 11:55:59;;;;;;;5.82;1.80;;;20.00;51.70;;;;;;5147711;28;20026;-78
2021/03/28 11:58:39;;;;;;;3.85;1.77;;;20.00;51.50;;;;;;5127299;28;20383;-78
2021/03/28 12:01:10;;;;;;;6.80;2.45;;;20.00;51.40;;;;;;5147780;28;20105;-78
2021/03/28 12:03:40;;;;;;;4.63;2.00;;;20.00;51.40;;;;;;5148633;28;20035;-79
2021/03/28 12:06:17;;;;;;;3.58;2.20;;;20.00;51.40;;;;;;5129487;28;20049;-78
2021/03/28 12:08:48;;;;;;;4.70;2.20;;;20.00;51.50;;;;;;5130894;28;21561;-78
2021/03/28 12:11:46;;;;;;;4.57;2.47;;;20.00;51.10;;;;;;5150608;28;20027;-78
2021/03/28 12:14:18;;;;;;;5.35;2.40;;;20.00;51.50;;;;;;5129065;29;20383;-78
2021/03/28 12:17:08;;;;;;;5.85;2.25;;;20.10;51.40;;;;;;5131449;28;20034;-79
2021/03/28 12:19:58;;;;;;;4.95;2.42;;;20.10;51.30;;;;;;5143464;28;20030;-78
2021/03/28 12:22:31;;;;;;;3.25;1.77;;;20.10;51.40;;;;;;5147042;28;20034;-78
2021/03/28 12:25:14;;;;;;;2.67;1.77;;;20.10;51.60;;;;;;5128506;29;20030;-78
2021/03/28 12:28:09;;;;;;;5.05;2.00;;;20.10;51.80;;;;;;5130660;28;20031;-79
2021/03/28 12:30:44;;;;;;;2.72;1.60;;;20.10;52.00;;;;;;5150051;28;20093;-80
2021/03/28 12:33:33;;;;;;;2.90;1.57;;;20.10;52.10;;;;;;5142274;28;20551;-78
2021/03/28 12:36:07;;;;;;;2.45;1.60;;;20.10;52.10;;;;;;5149371;28;20326;-78
2021/03/28 12:38:52;;;;;;;2.95;1.60;;;20.20;52.20;;;;;;5127193;28;20027;-77
2021/03/28 12:41:24;;;;;;;2.93;1.60;;;20.10;52.20;;;;;;5145887;28;20175;-79
2021/03/28 12:44:08;;;;;;;4.35;1.65;;;20.10;52.40;;;;;;5147426;28;20054;-78
2021/03/28 12:46:48;;;;;;;2.80;1.55;;;20.10;52.40;;;;;;5147957;28;20039;-79
2021/03/28 12:49:24;;;;;;;2.88;1.50;;;20.10;52.70;;;;;;5137710;28;20513;-78
2021/03/28 12:52:04;;;;;;;2.80;1.58;;;20.10;52.60;;;;;;5128143;28;20047;-78
2021/03/28 12:54:50;;;;;;;3.05;1.58;;;20.20;52.70;;;;;;5115033;28;20030;-78
2021/03/28 12:57:30;;;;;;;3.42;1.50;;;20.20;53.00;;;;;;5146343;28;20038;-78
2021/03/28 13:00:28;;;;;;;3.70;1.40;;;20.20;52.90;;;;;;5113083;28;20019;-78
2021/03/28 13:02:58;;;;;;;2.78;1.30;;;20.10;53.10;;;;;;5143530;28;20046;-78
2021/03/28 13:05:30;;;;;;;3.17;1.30;;;20.20;53.10;;;;;;5144404;28;20296;-78
2021/03/28 13:08:09;;;;;;;2.85;1.40;;;20.20;53.10;;;;;;5141710;28;20023;-78
2021/03/28 13:10:40;;;;;;;3.42;1.50;;;20.20;53.20;;;;;;5124118;28;20658;-78
2021/03/28 13:13:14;;;;;;;2.72;1.42;;;20.20;53.10;;;;;;5138740;28;20027;-77
2021/03/28 13:15:52;;;;;;;1.92;1.25;;;20.20;53.20;;;;;;5146244;28;20515;-77
2021/03/28 13:18:27;;;;;;;2.58;1.20;;;20.20;53.00;;;;;;5137040;28;20152;-78
2021/03/28 13:21:11;;;;;;;1.90;1.40;;;20.20;53.10;;;;;;5125224;28;20417;-78
2021/03/28 13:23:48;;;;;;;1.60;1.10;;;20.20;53.30;;;;;;5125664;28;20035;-79
2021/03/28 13:26:28;;;;;;;2.22;1.23;;;20.20;53.40;;;;;;5143514;28;20035;-79
2021/03/28 13:29:16;;;;;;;1.50;1.20;;;20.20;53.30;;;;;;5151032;28;20034;-78
2021/03/28 13:31:53;;;;;;;4.00;1.08;;;20.20;53.40;;;;;;5140288;28;20035;-77
2021/03/28 13:34:33;;;;;;;2.85;1.25;;;20.20;54.20;;;;;;5161117;28;20031;-79
2021/03/28 13:37:13;;;;;;;2.65;1.15;;;20.30;53.60;;;;;;5136019;28;20026;-78
2021/03/28 13:40:16;;;;;;;3.83;1.20;;;20.20;53.50;;;;;;5130215;28;20459;-78
2021/03/28 13:43:17;;;;;;;2.88;0.90;;;20.20;53.50;;;;;;5140549;28;20390;-77
2021/03/28 13:45:47;;;;;;;4.05;1.55;;;20.10;54.70;;;;;;5121497;28;20532;-77
2021/03/28 13:48:18;;;;;;;3.58;1.23;;;20.20;55.60;;;;;;5140953;28;20038;-78
2021/03/28 13:50:54;;;;;;;2.75;1.17;;;20.20;55.40;;;;;;5142060;28;20537;-78
2021/03/28 13:53:31;;;;;;;3.15;1.00;;;20.30;55.60;;;;;;5109544;29;20027;-78
2021/03/28 13:56:17;;;;;;;2.15;0.88;;;20.30;55.90;;;;;;5127766;28;20409;-77
2021/03/28 13:58:58;;;;;;;3.10;1.10;;;20.40;56.00;;;;;;5139364;28;20031;-78
2021/03/28 14:01:41;;;;;;;3.53;1.38;;;20.40;55.80;;;;;;5107274;28;20031;-78
2021/03/28 14:04:15;;;;;;;3.70;0.95;;;20.40;55.60;;;;;;5145279;28;20097;-78
2021/03/28 14:06:45;;;;;;;2.60;1.05;;;20.40;55.60;;;;;;5128773;28;20031;-78
2021/03/28 14:09:29;;;;;;;1.80;0.85;;;20.40;55.50;;;;;;5120335;28;20066;-79
2021/03/28 14:12:01;;;;;;;2.90;0.93;;;20.40;55.10;;;;;;5129003;29;20059;-78
2021/03/28 14:14:35;;;;;;;2.65;0.82;;;20.40;55.00;;;;;;5139970;28;20030;-79
2021/03/28 14:17:27;;;;;;;4.00;0.82;;;20.40;55.00;;;;;;5136692;28;20553;-79
2021/03/28 14:20:27;;;;;;;1.48;0.75;;;20.40;54.90;;;;;;5141040;28;20452;-79
2021/03/28 14:23:10;;;;;;;2.03;0.95;;;20.40;55.00;;;;;;5147147;28;20031;-78
2021/03/28 14:25:55;;;;;;;2.72;0.80;;;20.30;54.90;;;;;;5144827;28;20165;-78
2021/03/28 14:31:07;;;;;;;2.60;1.00;;;20.40;54.80;;;;;;5196389;28;20037;-73
2021/03/28 14:33:56;;;;;;;0.90;0.68;;;20.40;54.80;;;;;;5193794;28;20022;-73
2021/03/28 14:36:54;;;;;;;2.00;0.77;;;20.30;54.70;;;;;;5160935;28;20030;-73